Vining, IA (52348)

11:30 PM CDT on May 05, 2015 (GMT -0500)
South West Btown | | Change Station
CLOSE
Current Station
Personal Weather Station
Location: Blairstown, IA
Elevation: 866 ft
Nearby Weather Stations

Elev 866 ft 41.91 °N, 92.09 °W | Updated 28 seconds ago

Overcast
Overcast
59.2 °F
Feels Like 59.2 °F
N
7.4
Wind Variable Wind from ESE
Gusts 10.0 mph

Today
High -- | Low -- °F
--% Chance of Precip.
Yesterday
High -- | Low -- °F
Precip. -- in
6:00 AM 8:12 PM
Waning Gibbous, 96% visible
Pressure 30.14 in
Visibility 4.0 miles
Clouds Overcast 500 ft
Dew Point 58 °F
Humidity 97%
Rainfall 0.22 in
Snow Depth Not available.
UV 0 out of 12
Pollen 3.30 out of 12
Air Quality Not available.
Flu Activity Local Activity
METAR KVTI 060355Z AUTO 12008KT 4SM BR OVC005 15/13 A3014 RMK AO2 T01470133

More Conditions Fewer Conditions

Pressure 30.14 in
Visibility 4.0 miles
Clouds Overcast 500 ft
Dew Point 58 °F
Humidity 97%
Rainfall 0.22 in
Snow Depth Not available.
UV 0 out of 12
Pollen 3.30 out of 12
Air Quality Not available.
Flu Activity Local Activity
METAR KVTI 060355Z AUTO 12008KT 4SM BR OVC005 15/13 A3014 RMK AO2 T01470133

More Conditions Fewer Conditions

10-Day Weather Forecast

Almanac

Astronomy

May. 05, 2015 Rise Set
Actual Time
Civil Twilight
Nautical Twilight
Astronomical Twilight
Moon
Length of Visible Light
Length of Day
Tomorrow will be .
, % of the Moon is Illuminated

Today's Extremes

State Highs State Lows

Community

WunderPhotos

Upload Photos

1,818,932 photos uploaded!

WunderBlogs® & News

Nearby

Air Quality

  Air Quality AQ Index Pollutant
Not available.

Snow Depth

Station Depth Elevation

Earthquake Activity

City Distance Mag. Time & Date
Minimum magnitude displayed is 2.5.

Coastal Water Temperatures

Place Temperature

Stations

Nearby Weather Stations

Station Location Temp. Windchill Dew Point Humidity Wind Precip. Elev Updated Type